Terminal Aerodrome Forecast
Issued by NWS

Home | Current Version | Previous Version | Text Only | Print | Product List | Glossary Off
Versions: 1 2 3 4 5 6 7 8 9 10 11 12 13 14 15

000
FTUS42 KMHX 222331
TAFISO
TAF
KISO 222331Z 2300/2324 VRB04KT P6SM FEW040
     FM230500 00000KT 5SM BR FEW050
     FM230700 00000KT 1SM BR FEW050
     FM231300 04006KT P6SM FEW250
      AMD LTD TO CLD VIS AND WIND=

USA.gov is the U.S. government's official web portal to all federal, state and local government web resources and services.